Time;durP1;ratioP1;P1;durP2;ratioP2;P2;SDS_P1;SDS_P2;PMS_P1;PMS_P2;Temp;Humidity;BMP_temperature;BMP_pressure;BME280_temperature;BME280_humidity;BME280_pressure;Samples;Min_cycle;Max_cycle;Signal;HPM_P1;HPM_P2
2022/07/11 00:02:11;;;;;;;5.60;2.53;;;12.70;99.90;;;;;;5026034;28;20109;-88
2022/07/11 00:04:38;;;;;;;7.13;3.10;;;12.70;99.90;;;;;;5024626;28;20029;-89
2022/07/11 00:07:05;;;;;;;8.32;2.80;;;12.70;99.90;;;;;;5009716;28;20137;-88
2022/07/11 00:09:31;;;;;;;8.45;3.72;;;12.70;99.90;;;;;;5017030;28;20104;-86
2022/07/11 00:11:58;;;;;;;7.75;2.78;;;12.70;99.90;;;;;;5028005;28;20091;-88
2022/07/11 00:14:24;;;;;;;9.85;3.72;;;12.70;99.90;;;;;;5041306;28;20036;-87
2022/07/11 00:16:51;;;;;;;5.67;2.83;;;12.70;99.90;;;;;;5023124;28;20085;-87
2022/07/11 00:19:20;;;;;;;10.40;2.95;;;12.70;99.90;;;;;;5022525;28;20096;-89
2022/07/11 00:21:58;;;;;;;9.35;3.17;;;12.70;99.90;;;;;;5027288;28;20033;-89
2022/07/11 00:24:26;;;;;;;12.82;3.40;;;12.90;99.90;;;;;;5022418;28;20029;-87
2022/07/11 00:26:52;;;;;;;7.32;3.03;;;12.90;99.90;;;;;;5020399;28;20108;-88
2022/07/11 00:29:18;;;;;;;13.10;3.97;;;12.80;99.90;;;;;;5017904;28;20061;-89
2022/07/11 00:31:44;;;;;;;8.18;4.30;;;12.80;99.90;;;;;;5019443;28;20452;-90
2022/07/11 00:34:10;;;;;;;10.23;3.95;;;12.80;99.90;;;;;;5029256;28;20022;-89
2022/07/11 00:36:37;;;;;;;8.95;3.15;;;12.90;99.90;;;;;;5031093;28;20049;-89
2022/07/11 00:39:03;;;;;;;6.82;3.17;;;12.90;99.90;;;;;;5005176;28;20018;-89
2022/07/11 00:41:29;;;;;;;7.13;3.08;;;12.90;99.90;;;;;;5000660;28;20018;-87
2022/07/11 00:43:57;;;;;;;5.43;3.08;;;12.90;99.90;;;;;;5028071;28;20577;-88
2022/07/11 00:46:24;;;;;;;10.13;2.92;;;12.80;99.90;;;;;;5021895;28;20376;-88
2022/07/11 00:48:51;;;;;;;12.15;4.03;;;12.90;99.90;;;;;;5014865;28;20052;-88
2022/07/11 00:51:22;;;;;;;13.03;3.33;;;12.90;99.90;;;;;;5021291;28;20111;-88
2022/07/11 00:53:51;;;;;;;6.63;3.60;;;12.90;99.90;;;;;;5011920;28;20033;-90
2022/07/11 00:56:29;;;;;;;10.45;3.22;;;12.90;99.90;;;;;;5006572;28;20120;-91
2022/07/11 00:58:56;;;;;;;6.63;3.25;;;12.80;99.90;;;;;;5000499;28;20117;-88
2022/07/11 01:01:22;;;;;;;10.95;3.80;;;12.80;99.90;;;;;;5007103;28;20049;-88
2022/07/11 01:03:48;;;;;;;6.47;2.85;;;12.80;99.90;;;;;;5023472;28;20036;-88
2022/07/11 01:06:15;;;;;;;10.75;3.60;;;12.80;99.90;;;;;;5024414;28;20025;-89
2022/07/11 01:08:41;;;;;;;14.48;3.28;;;12.70;99.90;;;;;;5020357;28;20041;-90
2022/07/11 01:11:13;;;;;;;8.47;2.90;;;12.70;99.90;;;;;;5006091;28;20041;-89
2022/07/11 01:13:40;;;;;;;8.85;3.15;;;12.80;99.90;;;;;;5014227;28;20171;-89
2022/07/11 01:16:16;;;;;;;10.15;3.33;;;12.80;99.90;;;;;;5023950;28;20026;-91
2022/07/11 01:18:48;;;;;;;8.18;3.00;;;12.90;99.90;;;;;;5025064;28;20022;-88
2022/07/11 01:21:19;;;;;;;10.68;2.95;;;12.90;99.90;;;;;;5024473;28;20033;-89
2022/07/11 01:23:50;;;;;;;8.35;3.22;;;12.90;99.90;;;;;;5020309;28;20053;-88
2022/07/11 01:26:19;;;;;;;6.47;2.97;;;12.90;99.90;;;;;;5007788;28;20014;-89
2022/07/11 01:28:48;;;;;;;5.63;2.50;;;13.00;99.90;;;;;;5020634;28;20030;-92
2022/07/11 01:31:14;;;;;;;13.60;3.13;;;13.10;99.90;;;;;;5023856;28;20025;-90
2022/07/11 01:33:40;;;;;;;8.73;3.63;;;13.00;99.90;;;;;;5024153;28;20026;-92
2022/07/11 01:36:06;;;;;;;12.30;3.37;;;13.00;99.90;;;;;;5024893;28;20024;-86
2022/07/11 01:38:32;;;;;;;7.97;3.42;;;13.00;99.90;;;;;;5039197;23;20493;-62
2022/07/11 01:40:58;;;;;;;5.93;3.30;;;13.10;99.90;;;;;;5030952;28;20132;-63
2022/07/11 01:43:24;;;;;;;9.35;4.03;;;13.10;99.90;;;;;;5025570;28;20040;-63
2022/07/11 01:45:54;;;;;;;8.83;3.30;;;12.90;99.90;;;;;;5012398;28;20029;-60
2022/07/11 01:48:20;;;;;;;8.70;3.55;;;12.90;99.90;;;;;;5014970;28;20307;-62
2022/07/11 01:50:47;;;;;;;9.50;2.90;;;12.80;99.90;;;;;;5024359;28;20116;-62
2022/07/11 01:53:13;;;;;;;10.20;3.17;;;12.80;99.90;;;;;;5029146;28;20027;-63
2022/07/11 01:55:39;;;;;;;11.43;3.22;;;12.70;99.90;;;;;;5029641;28;20037;-61
2022/07/11 01:58:04;;;;;;;9.63;2.92;;;12.90;99.90;;;;;;5022155;28;20033;-62
2022/07/11 02:00:30;;;;;;;6.30;3.03;;;12.80;99.90;;;;;;5021333;28;20022;-62
2022/07/11 02:02:56;;;;;;;8.65;3.47;;;12.80;99.90;;;;;;5020052;28;20045;-62
2022/07/11 02:05:22;;;;;;;10.80;3.13;;;12.60;99.90;;;;;;5019894;28;20017;-61
2022/07/11 02:10:31;;;;;;;9.63;3.70;;;12.70;99.90;;;;;;5022457;28;20048;-61
2022/07/11 02:12:58;;;;;;;7.82;4.00;;;12.60;99.90;;;;;;5013586;28;20030;-62
2022/07/11 02:15:28;;;;;;;8.48;3.15;;;12.60;99.90;;;;;;5010600;28;20428;-62
2022/07/11 02:17:54;;;;;;;6.18;3.47;;;12.70;99.90;;;;;;5010521;28;20100;-64
2022/07/11 02:20:21;;;;;;;13.95;4.32;;;12.60;99.90;;;;;;5010630;28;20040;-62
2022/07/11 02:22:51;;;;;;;10.47;4.40;;;12.70;99.90;;;;;;5010596;28;20462;-61
2022/07/11 02:25:17;;;;;;;9.52;3.80;;;12.60;99.90;;;;;;5009118;28;20049;-61
2022/07/11 02:27:43;;;;;;;9.25;3.85;;;12.70;99.90;;;;;;5009096;28;20026;-61
2022/07/11 02:30:09;;;;;;;11.75;4.18;;;12.70;99.90;;;;;;5010673;28;20111;-61
2022/07/11 02:32:36;;;;;;;12.13;4.13;;;12.80;99.90;;;;;;5010481;28;20036;-61
2022/07/11 02:35:01;;;;;;;15.32;5.25;;;12.80;99.90;;;;;;5009691;28;20060;-62
2022/07/11 02:37:27;;;;;;;9.30;4.68;;;12.80;99.90;;;;;;5010080;28;20030;-62
2022/07/11 02:39:53;;;;;;;11.43;4.85;;;12.90;99.90;;;;;;5027661;28;20177;-61
2022/07/11 02:42:18;;;;;;;10.05;5.05;;;12.90;99.90;;;;;;5029897;28;20473;-60
2022/07/11 02:44:45;;;;;;;10.45;4.35;;;12.80;99.90;;;;;;5030051;28;20144;-61
2022/07/11 02:47:11;;;;;;;18.50;5.00;;;12.80;99.90;;;;;;5029837;28;20025;-61
2022/07/11 02:49:37;;;;;;;9.40;4.07;;;12.80;99.90;;;;;;5030141;28;20037;-62
2022/07/11 02:52:04;;;;;;;8.73;4.43;;;12.70;99.90;;;;;;5030241;28;20223;-62
2022/07/11 02:54:30;;;;;;;11.07;4.40;;;12.70;99.90;;;;;;5030108;28;20036;-60
2022/07/11 02:56:56;;;;;;;9.25;4.70;;;12.60;99.90;;;;;;5011965;28;20030;-62
2022/07/11 02:59:22;;;;;;;11.65;4.32;;;12.60;99.90;;;;;;5029713;28;20064;-61
2022/07/11 03:01:48;;;;;;;10.10;5.05;;;12.60;99.90;;;;;;5029426;28;20048;-60
2022/07/11 03:04:14;;;;;;;11.15;4.47;;;12.50;99.90;;;;;;5029824;28;20033;-61
2022/07/11 03:06:40;;;;;;;10.25;4.47;;;12.50;99.90;;;;;;5029686;28;20469;-61
2022/07/11 03:09:07;;;;;;;9.60;4.35;;;12.60;99.90;;;;;;5029661;28;20473;-63
2022/07/11 03:11:33;;;;;;;13.25;5.20;;;12.50;99.90;;;;;;5029600;28;20032;-61
2022/07/11 03:14:00;;;;;;;9.68;4.57;;;12.50;99.90;;;;;;5029675;28;20042;-60
2022/07/11 03:16:26;;;;;;;;;;;12.60;99.90;;;;;;5030425;28;20034;-62
2022/07/11 03:18:52;;;;;;;10.95;4.60;;;12.50;99.90;;;;;;5029625;28;20283;-61
2022/07/11 03:21:17;;;;;;;11.75;5.28;;;12.60;99.90;;;;;;5029719;28;20465;-62
2022/07/11 03:23:43;;;;;;;11.55;4.97;;;12.50;99.90;;;;;;5029838;28;20029;-61
2022/07/11 03:26:09;;;;;;;10.30;5.13;;;12.50;99.90;;;;;;5029602;28;20060;-61
2022/07/11 03:28:34;;;;;;;13.02;5.80;;;12.60;99.90;;;;;;5029286;28;20033;-61
2022/07/11 03:31:00;;;;;;;22.15;5.75;;;12.60;99.90;;;;;;5029425;28;20156;-60
2022/07/11 03:33:27;;;;;;;14.55;5.65;;;12.60;99.90;;;;;;5029565;28;20033;-62
2022/07/11 03:35:53;;;;;;;12.02;5.10;;;12.60;99.90;;;;;;5029600;28;20026;-61
2022/07/11 03:38:20;;;;;;;16.90;4.95;;;12.50;99.90;;;;;;5029373;28;20148;-60
2022/07/11 03:40:47;;;;;;;9.82;4.80;;;12.60;99.90;;;;;;5029463;28;20018;-60
2022/07/11 03:43:13;;;;;;;15.23;4.32;;;12.50;99.90;;;;;;5029039;28;20040;-60
2022/07/11 03:45:39;;;;;;;10.75;4.63;;;12.50;99.90;;;;;;5029636;28;20036;-61
2022/07/11 03:48:05;;;;;;;14.35;4.88;;;12.40;99.90;;;;;;5029212;28;20671;-62
2022/07/11 03:50:30;;;;;;;8.25;3.85;;;12.40;99.90;;;;;;5029338;28;20079;-61
2022/07/11 03:52:56;;;;;;;10.48;4.30;;;12.40;99.90;;;;;;5029356;28;20022;-60
2022/07/11 03:55:22;;;;;;;7.18;4.22;;;12.40;99.90;;;;;;5029325;28;20130;-61
2022/07/11 03:57:48;;;;;;;13.40;4.70;;;12.40;99.90;;;;;;5029306;28;20662;-60
2022/07/11 04:00:14;;;;;;;12.00;4.28;;;12.40;99.90;;;;;;5029517;28;20538;-61
2022/07/11 04:02:40;;;;;;;10.15;4.65;;;12.30;99.90;;;;;;5011668;28;20105;-61
2022/07/11 04:05:06;;;;;;;7.22;3.90;;;12.40;99.90;;;;;;5029086;28;20151;-61
2022/07/11 04:07:32;;;;;;;11.75;5.63;;;12.40;99.90;;;;;;5029260;28;20025;-61
2022/07/11 04:09:58;;;;;;;10.32;4.90;;;12.50;99.90;;;;;;5029180;28;20037;-61
2022/07/11 04:12:24;;;;;;;14.52;5.03;;;12.40;99.90;;;;;;5030152;28;20033;-61
2022/07/11 04:14:49;;;;;;;15.50;4.57;;;12.40;99.90;;;;;;5014817;28;20029;-61
2022/07/11 04:17:16;;;;;;;17.27;4.85;;;12.40;99.90;;;;;;5032663;28;20025;-61
2022/07/11 04:19:45;;;;;;;12.07;4.43;;;12.50;99.90;;;;;;5032792;28;20400;-62
2022/07/11 04:22:11;;;;;;;9.52;4.30;;;12.50;99.90;;;;;;5032670;28;20034;-61
2022/07/11 04:24:37;;;;;;;12.70;4.25;;;12.60;99.90;;;;;;5032567;28;20389;-61
2022/07/11 04:27:04;;;;;;;10.70;4.03;;;12.70;99.90;;;;;;5014462;28;20022;-60
2022/07/11 04:29:30;;;;;;;14.27;4.25;;;12.80;99.90;;;;;;5032348;28;20049;-62
2022/07/11 04:31:55;;;;;;;6.82;3.72;;;12.70;99.90;;;;;;5032405;28;20144;-61
2022/07/11 04:34:21;;;;;;;8.77;3.38;;;12.70;99.90;;;;;;5032283;28;20121;-61
2022/07/11 04:36:47;;;;;;;10.95;3.67;;;12.70;99.90;;;;;;5032404;28;20057;-62
2022/07/11 04:39:13;;;;;;;12.20;3.20;;;12.70;99.90;;;;;;5032202;28;20065;-61
2022/07/11 04:41:39;;;;;;;12.05;3.60;;;12.80;99.90;;;;;;5014250;28;20026;-61
2022/07/11 04:44:05;;;;;;;11.13;3.45;;;12.90;99.90;;;;;;5032357;28;20037;-61
2022/07/11 04:46:31;;;;;;;11.18;3.65;;;12.90;99.90;;;;;;5032277;28;20032;-61
2022/07/11 04:48:57;;;;;;;11.60;3.28;;;12.90;99.90;;;;;;5014524;28;20040;-60
2022/07/11 04:51:24;;;;;;;9.23;3.47;;;13.00;99.90;;;;;;5032125;28;20358;-61
2022/07/11 04:53:50;;;;;;;10.18;3.90;;;13.10;99.90;;;;;;5032186;28;20025;-61
2022/07/11 04:56:16;;;;;;;13.55;3.85;;;13.10;99.90;;;;;;5031921;28;20049;-61
2022/07/11 04:58:42;;;;;;;8.27;3.67;;;13.20;99.90;;;;;;5031699;28;20032;-61
2022/07/11 05:01:09;;;;;;;9.57;3.60;;;13.20;99.90;;;;;;5031959;28;20040;-62
2022/07/11 05:03:34;;;;;;;9.65;3.70;;;13.20;99.90;;;;;;5032078;28;20040;-61
2022/07/11 05:06:00;;;;;;;11.20;3.42;;;13.30;99.90;;;;;;5030439;28;20026;-62
2022/07/11 05:08:27;;;;;;;13.18;4.28;;;13.40;99.90;;;;;;5031716;28;20132;-61
2022/07/11 05:10:52;;;;;;;19.42;4.80;;;13.40;99.90;;;;;;5031639;28;20044;-61
2022/07/11 05:13:18;;;;;;;9.32;3.80;;;13.50;99.90;;;;;;5013873;28;20029;-61
2022/07/11 05:15:44;;;;;;;20.38;4.70;;;13.60;99.90;;;;;;5031602;28;20492;-60
2022/07/11 05:18:10;;;;;;;13.82;4.38;;;13.60;99.90;;;;;;5031638;28;20026;-61
2022/07/11 05:20:36;;;;;;;22.17;5.60;;;13.70;99.90;;;;;;5031836;28;20029;-61
2022/07/11 05:23:02;;;;;;;15.20;5.05;;;13.70;99.90;;;;;;5031480;28;20107;-61
2022/07/11 05:25:28;;;;;;;13.77;4.57;;;13.80;99.90;;;;;;5031351;28;20481;-61
2022/07/11 05:27:53;;;;;;;18.02;4.57;;;13.80;99.90;;;;;;5031384;28;20031;-61
2022/07/11 05:30:19;;;;;;;11.27;4.45;;;13.80;99.90;;;;;;5031262;28;20041;-61
2022/07/11 05:32:45;;;;;;;11.50;3.65;;;13.90;99.90;;;;;;5031427;28;20083;-61
2022/07/11 05:35:10;;;;;;;9.70;3.58;;;14.00;99.90;;;;;;5031398;28;20033;-60
2022/07/11 05:37:36;;;;;;;15.10;3.60;;;14.00;99.90;;;;;;5031151;28;20461;-61
2022/07/11 05:40:02;;;;;;;7.68;3.03;;;14.10;99.90;;;;;;5031172;28;20045;-61
2022/07/11 05:42:28;;;;;;;13.05;3.88;;;14.10;99.90;;;;;;5031465;28;20232;-61
2022/07/11 05:44:54;;;;;;;12.48;3.30;;;14.10;99.90;;;;;;5013190;28;20111;-62
2022/07/11 05:47:20;;;;;;;13.88;4.03;;;14.00;99.90;;;;;;5031060;28;20034;-61
2022/07/11 05:49:46;;;;;;;9.43;3.33;;;14.10;99.90;;;;;;5031013;28;20048;-61
2022/07/11 05:52:11;;;;;;;7.78;2.90;;;14.20;99.90;;;;;;5031207;28;20018;-62
2022/07/11 05:54:37;;;;;;;8.80;3.10;;;14.20;99.90;;;;;;5031346;28;20025;-61
2022/07/11 05:57:03;;;;;;;10.48;3.22;;;14.30;99.90;;;;;;5030789;28;20021;-63
2022/07/11 05:59:29;;;;;;;11.65;3.58;;;14.30;99.90;;;;;;5030840;28;20025;-62
2022/07/11 06:01:55;;;;;;;9.32;3.15;;;14.30;99.90;;;;;;5030791;28;20035;-61
2022/07/11 06:04:21;;;;;;;12.40;2.45;;;14.30;99.90;;;;;;5012971;28;20447;-61
2022/07/11 06:06:47;;;;;;;9.82;2.55;;;14.40;99.90;;;;;;5030540;28;20104;-60
2022/07/11 06:09:13;;;;;;;15.48;3.38;;;14.50;99.90;;;;;;5030066;28;20040;-62
2022/07/11 06:11:39;;;;;;;13.15;3.28;;;14.50;99.90;;;;;;5012989;28;20481;-61
2022/07/11 06:14:09;;;;;;;9.90;2.65;;;14.60;99.90;;;;;;5030545;28;20054;-61
2022/07/11 06:16:35;;;;;;;7.45;2.70;;;14.60;99.90;;;;;;5030392;28;20038;-61
2022/07/11 06:19:01;;;;;;;9.43;3.28;;;14.60;99.90;;;;;;5030657;28;20017;-61
2022/07/11 06:21:27;;;;;;;10.48;2.60;;;14.70;99.90;;;;;;5012665;28;20503;-62
2022/07/11 06:23:54;;;;;;;11.30;3.03;;;14.80;99.90;;;;;;5030431;28;20034;-62
2022/07/11 06:26:20;;;;;;;10.13;2.67;;;14.80;99.90;;;;;;5036523;28;20510;-62
2022/07/11 06:28:46;;;;;;;9.95;2.47;;;14.90;99.90;;;;;;5044132;28;20047;-62
2022/07/11 06:31:12;;;;;;;9.05;3.30;;;15.00;99.90;;;;;;5040302;28;20026;-61
2022/07/11 06:33:38;;;;;;;10.98;2.65;;;15.00;99.90;;;;;;5038699;28;20029;-61
2022/07/11 06:36:05;;;;;;;10.25;2.92;;;15.10;99.90;;;;;;5049492;28;20445;-61
2022/07/11 06:38:32;;;;;;;9.82;2.88;;;15.10;99.90;;;;;;5028412;28;20434;-62
2022/07/11 06:40:58;;;;;;;12.63;2.72;;;15.20;99.90;;;;;;5027103;28;20060;-61
2022/07/11 06:43:24;;;;;;;11.27;2.55;;;15.30;99.90;;;;;;5019458;28;20479;-61
2022/07/11 06:45:51;;;;;;;8.55;2.63;;;15.40;99.90;;;;;;5020946;28;20037;-61
2022/07/11 06:48:17;;;;;;;9.68;2.20;;;15.50;99.90;;;;;;5019288;28;20018;-62
2022/07/11 06:50:43;;;;;;;14.35;3.42;;;15.60;99.90;;;;;;5019448;28;20033;-61
2022/07/11 06:53:09;;;;;;;8.27;2.30;;;15.70;99.90;;;;;;5020497;28;20462;-61
2022/07/11 06:55:35;;;;;;;10.82;2.53;;;15.80;99.90;;;;;;5029824;28;20057;-61
2022/07/11 06:58:02;;;;;;;13.77;2.65;;;15.90;99.90;;;;;;5029815;28;20052;-61
2022/07/11 07:00:28;;;;;;;8.15;2.85;;;16.00;99.90;;;;;;5029974;28;20021;-63
2022/07/11 07:02:56;;;;;;;6.93;2.20;;;16.00;99.90;;;;;;5030017;28;20060;-62
2022/07/11 07:05:25;;;;;;;6.70;1.73;;;16.10;99.90;;;;;;5029472;28;20027;-61
2022/07/11 07:07:52;;;;;;;9.48;2.05;;;16.30;99.90;;;;;;5029720;28;20489;-61
2022/07/11 07:10:18;;;;;;;10.27;1.98;;;16.40;99.90;;;;;;5029702;28;20030;-61
2022/07/11 07:12:44;;;;;;;7.03;2.13;;;16.40;99.90;;;;;;5025211;28;20405;-61
2022/07/11 07:15:11;;;;;;;12.30;2.03;;;16.50;99.90;;;;;;5029234;28;20022;-61
2022/07/11 07:17:37;;;;;;;8.73;2.10;;;16.60;99.90;;;;;;5028831;28;20044;-59
2022/07/11 07:20:04;;;;;;;8.13;2.08;;;16.60;99.90;;;;;;5029443;28;20021;-61
2022/07/11 07:22:30;;;;;;;12.68;2.28;;;16.70;99.90;;;;;;5028412;28;20030;-61
2022/07/11 07:24:56;;;;;;;7.97;2.50;;;16.60;99.90;;;;;;5029612;28;20033;-59
2022/07/11 07:27:22;;;;;;;11.95;2.22;;;16.70;99.90;;;;;;5028321;28;20026;-60
2022/07/11 07:29:48;;;;;;;8.63;1.90;;;16.70;99.90;;;;;;5029531;28;20366;-59
2022/07/11 07:32:14;;;;;;;8.77;2.30;;;16.70;99.90;;;;;;5029239;28;20129;-59
2022/07/11 07:34:40;;;;;;;9.98;2.25;;;16.60;99.90;;;;;;5029206;28;20392;-60
2022/07/11 07:37:05;;;;;;;8.20;1.88;;;16.60;99.90;;;;;;5029385;28;20108;-59
2022/07/11 07:39:31;;;;;;;6.50;1.55;;;16.50;99.90;;;;;;5043320;28;20767;-60
2022/07/11 07:41:57;;;;;;;7.40;1.88;;;16.50;99.90;;;;;;5049342;28;20415;-60
2022/07/11 07:44:23;;;;;;;7.80;2.10;;;16.50;99.90;;;;;;5049664;28;20116;-61
2022/07/11 07:46:48;;;;;;;8.50;1.67;;;16.50;99.90;;;;;;5031733;28;20021;-60
2022/07/11 07:49:14;;;;;;;10.68;1.90;;;16.50;99.90;;;;;;5052902;28;20056;-60
2022/07/11 07:51:40;;;;;;;15.15;2.22;;;16.50;99.90;;;;;;5053115;28;20025;-60
2022/07/11 07:54:06;;;;;;;8.75;2.53;;;16.60;99.90;;;;;;5053341;28;20566;-60
2022/07/11 07:56:32;;;;;;;10.05;3.38;;;16.80;99.90;;;;;;5053133;28;20128;-59
2022/07/11 07:58:57;;;;;;;14.85;3.08;;;16.90;99.90;;;;;;5053032;28;20033;-59
2022/07/11 08:01:35;;;;;;;10.23;2.60;;;17.00;99.90;;;;;;5052848;28;20059;-60
2022/07/11 08:04:10;;;;;;;;;;;17.20;99.90;;;;;;5053226;28;20025;-60
2022/07/11 08:06:36;;;;;;;6.15;1.40;;;17.10;99.90;;;;;;5052842;28;19905;-60
2022/07/11 08:09:03;;;;;;;7.57;2.10;;;16.90;99.90;;;;;;5052666;28;20048;-59
2022/07/11 08:11:30;;;;;;;;;;;16.90;99.90;;;;;;5053252;28;20029;-59
2022/07/11 08:13:56;;;;;;;5.20;1.73;;;16.70;99.90;;;;;;5052662;28;19940;-60
2022/07/11 08:16:21;;;;;;;8.68;2.08;;;16.60;99.90;;;;;;5052515;28;20032;-59
2022/07/11 08:18:47;;;;;;;5.65;1.52;;;16.80;99.90;;;;;;5052406;28;20480;-59
2022/07/11 08:21:13;;;;;;;9.80;2.10;;;16.70;99.90;;;;;;5052222;28;20033;-60
2022/07/11 08:23:39;;;;;;;10.52;2.13;;;16.80;99.90;;;;;;5052601;28;20036;-59
2022/07/11 08:26:05;;;;;;;5.50;1.52;;;16.70;99.90;;;;;;5052509;28;20037;-59
2022/07/11 08:28:30;;;;;;;6.07;1.17;;;16.60;99.90;;;;;;5052018;28;20025;-57
2022/07/11 08:30:56;;;;;;;5.47;1.02;;;16.50;99.90;;;;;;5052544;28;20047;-57
2022/07/11 08:33:22;;;;;;;9.27;1.52;;;16.70;99.90;;;;;;5052389;28;20112;-57
2022/07/11 08:35:48;;;;;;;6.03;1.25;;;16.80;99.90;;;;;;5052031;28;20096;-57
2022/07/11 08:38:14;;;;;;;5.53;1.13;;;17.00;99.90;;;;;;5051835;28;20102;-57
2022/07/11 08:40:43;;;;;;;5.32;1.13;;;16.90;99.90;;;;;;5052117;28;20044;-56
2022/07/11 08:43:17;;;;;;;3.80;0.75;;;17.00;99.90;;;;;;5034022;28;20029;-56
2022/07/11 08:45:44;;;;;;;12.88;2.42;;;17.00;99.90;;;;;;5052099;28;20033;-57
2022/07/11 08:48:10;;;;;;;5.70;1.07;;;17.00;99.90;;;;;;5052050;28;20481;-58
2022/07/11 08:50:36;;;;;;;12.05;1.58;;;16.80;99.90;;;;;;5052018;28;20464;-59
2022/07/11 08:53:04;;;;;;;4.70;1.00;;;16.80;99.90;;;;;;5017561;28;20427;-58
2022/07/11 08:55:30;;;;;;;6.25;1.15;;;16.80;99.90;;;;;;5051925;28;20028;-58
2022/07/11 08:57:56;;;;;;;5.95;1.33;;;17.20;99.90;;;;;;5051082;28;20033;-58
2022/07/11 09:00:23;;;;;;;5.45;1.40;;;17.30;99.90;;;;;;5051899;28;20025;-58
2022/07/11 09:02:49;;;;;;;3.85;1.02;;;17.30;99.90;;;;;;5051807;28;20389;-58
2022/07/11 09:05:15;;;;;;;5.20;1.48;;;17.20;99.90;;;;;;5051272;28;20025;-58
2022/07/11 09:07:46;;;;;;;7.63;1.50;;;17.20;99.90;;;;;;5051367;28;20112;-58
2022/07/11 09:10:15;;;;;;;6.35;1.33;;;17.30;99.90;;;;;;5050569;28;20045;-59
2022/07/11 09:12:57;;;;;;;3.55;1.02;;;17.40;99.90;;;;;;5051662;28;20029;-58
2022/07/11 09:15:44;;;;;;;9.27;1.48;;;17.40;99.90;;;;;;5051657;28;20033;-60
2022/07/11 09:18:29;;;;;;;4.95;1.27;;;17.50;99.90;;;;;;5038219;28;20037;-58
2022/07/11 09:26:36;;;;;;;6.68;1.50;;;17.70;99.80;;;;;;5037933;28;20043;-56
2022/07/11 09:29:03;;;;;;;8.02;1.33;;;17.70;99.90;;;;;;5035432;28;20095;-56
2022/07/11 09:31:30;;;;;;;20.95;2.72;;;17.90;98.60;;;;;;5035975;28;20463;-59
2022/07/11 09:34:02;;;;;;;12.18;2.60;;;17.90;98.70;;;;;;5031019;28;20076;-59
2022/07/11 09:36:48;;;;;;;11.32;2.25;;;17.90;97.60;;;;;;5031050;28;20025;-58
2022/07/11 09:39:17;;;;;;;3.35;0.77;;;18.10;96.20;;;;;;5037703;28;20067;-58
2022/07/11 09:41:43;;;;;;;3.83;1.58;;;18.30;95.60;;;;;;5040326;28;20411;-58
2022/07/11 09:44:20;;;;;;;6.82;1.92;;;18.20;95.10;;;;;;5038827;28;20017;-59
2022/07/11 09:46:49;;;;;;;6.22;1.08;;;18.10;94.90;;;;;;5038762;28;20037;-59
2022/07/11 09:49:16;;;;;;;10.77;1.88;;;18.30;96.30;;;;;;5040125;28;20052;-58
2022/07/11 09:51:43;;;;;;;7.93;2.03;;;18.50;93.30;;;;;;5040013;28;20040;-58
2022/07/11 09:54:10;;;;;;;8.05;1.05;;;18.30;93.00;;;;;;5038546;28;20032;-59
2022/07/11 09:56:41;;;;;;;8.15;1.60;;;18.30;93.50;;;;;;5039797;28;20104;-60
2022/07/11 09:59:10;;;;;;;5.93;1.30;;;18.30;95.40;;;;;;5040537;28;20017;-60
2022/07/11 10:01:37;;;;;;;11.60;1.52;;;18.20;93.80;;;;;;5038925;28;20890;-59
2022/07/11 10:04:05;;;;;;;7.47;1.17;;;17.90;94.60;;;;;;5038609;28;20037;-59
2022/07/11 10:06:31;;;;;;;5.82;1.13;;;17.70;95.10;;;;;;5038231;28;20104;-61
2022/07/11 10:08:57;;;;;;;5.07;0.98;;;17.20;99.80;;;;;;5021420;28;20171;-66
2022/07/11 10:11:23;;;;;;;4.70;0.60;;;16.60;99.90;;;;;;5039629;28;20091;-59
2022/07/11 10:13:49;;;;;;;2.63;0.65;;;16.20;99.90;;;;;;5038239;28;20362;-60
2022/07/11 10:16:42;;;;;;;3.50;0.65;;;15.70;99.90;;;;;;5039694;28;20025;-60
2022/07/11 10:19:29;;;;;;;4.63;0.50;;;15.50;99.90;;;;;;5040124;28;20025;-61
2022/07/11 10:22:13;;;;;;;2.78;0.68;;;15.40;99.90;;;;;;5038717;28;20053;-60
2022/07/11 10:24:54;;;;;;;3.20;0.88;;;15.40;99.90;;;;;;5039595;28;20082;-59
2022/07/11 10:27:35;;;;;;;3.20;0.63;;;15.30;99.90;;;;;;5039021;28;20394;-60
2022/07/11 10:30:01;;;;;;;1.63;0.50;;;15.30;99.90;;;;;;5032687;28;20092;-61
2022/07/11 10:32:27;;;;;;;2.78;0.90;;;15.30;99.90;;;;;;5029723;28;20037;-59
2022/07/11 10:35:11;;;;;;;6.15;0.75;;;15.40;99.90;;;;;;5044500;28;20480;-59
2022/07/11 10:37:53;;;;;;;2.25;0.75;;;15.60;99.90;;;;;;5037209;28;20060;-60
2022/07/11 10:40:50;;;;;;;2.50;0.82;;;16.10;99.90;;;;;;5047535;28;20040;-60
2022/07/11 10:43:22;;;;;;;4.35;1.70;;;16.80;99.90;;;;;;5046426;28;20029;-59
2022/07/11 10:46:19;;;;;;;4.53;0.80;;;17.20;99.90;;;;;;5049089;28;20476;-59
2022/07/11 10:48:51;;;;;;;2.30;0.60;;;17.20;99.90;;;;;;5047345;28;20079;-58
2022/07/11 10:51:42;;;;;;;1.67;0.38;;;17.30;99.90;;;;;;5046884;28;20021;-59
2022/07/11 10:54:19;;;;;;;2.35;0.60;;;17.40;99.90;;;;;;5032594;28;20124;-59
2022/07/11 10:57:03;;;;;;;1.27;0.40;;;18.20;99.90;;;;;;5048829;28;20085;-59
2022/07/11 10:59:28;;;;;;;3.63;0.60;;;18.30;99.90;;;;;;5048250;28;20021;-59
2022/07/11 11:02:03;;;;;;;1.45;0.52;;;18.00;99.20;;;;;;5048721;28;20079;-59
2022/07/11 11:05:00;;;;;;;1.23;0.40;;;18.40;99.60;;;;;;5048699;28;20025;-59
2022/07/11 11:07:47;;;;;;;1.42;0.35;;;17.40;96.80;;;;;;5048093;28;20040;-60
2022/07/11 11:10:18;;;;;;;3.90;0.60;;;17.60;98.50;;;;;;5019824;28;20057;-60
2022/07/11 11:13:14;;;;;;;2.88;0.55;;;17.90;97.90;;;;;;5038477;28;20032;-59
2022/07/11 11:15:49;;;;;;;6.47;4.00;;;18.20;99.00;;;;;;5045900;28;20060;-60
2022/07/11 11:18:24;;;;;;;4.90;1.40;;;18.40;96.70;;;;;;5046414;28;20399;-60
2022/07/11 11:21:02;;;;;;;6.68;1.20;;;18.30;96.40;;;;;;5048928;28;20029;-60
2022/07/11 11:23:34;;;;;;;8.05;0.90;;;18.30;96.30;;;;;;5052594;28;21406;-59
2022/07/11 11:26:10;;;;;;;2.92;0.52;;;17.80;99.90;;;;;;5051128;28;20116;-76
2022/07/11 11:28:37;;;;;;;1.77;0.70;;;17.10;99.90;;;;;;5050850;28;20105;-76
2022/07/11 11:31:07;;;;;;;1.48;0.60;;;16.00;99.90;;;;;;5052681;28;20427;-68
2022/07/11 11:33:34;;;;;;;5.43;1.10;;;15.20;99.90;;;;;;5052618;28;20565;-73
2022/07/11 11:36:06;;;;;;;3.25;0.93;;;15.10;99.90;;;;;;5052648;28;20032;-59
2022/07/11 11:38:52;;;;;;;7.07;1.20;;;15.10;99.90;;;;;;5052065;28;20068;-60
2022/07/11 11:41:25;;;;;;;2.63;0.60;;;15.10;99.90;;;;;;5050543;28;20039;-59
2022/07/11 11:43:56;;;;;;;1.65;0.82;;;15.20;99.90;;;;;;5034477;28;20091;-59
2022/07/11 11:46:26;;;;;;;2.20;0.70;;;15.20;99.90;;;;;;5052614;28;20124;-60
2022/07/11 11:48:57;;;;;;;2.08;0.80;;;15.30;99.90;;;;;;5052155;28;20029;-61
2022/07/11 11:51:23;;;;;;;2.38;0.63;;;15.30;99.90;;;;;;5052243;28;20032;-61
2022/07/11 11:53:51;;;;;;;6.60;1.00;;;15.10;99.90;;;;;;5051983;28;20017;-77
2022/07/11 11:56:22;;;;;;;5.43;1.00;;;14.80;99.90;;;;;;5052587;28;20025;-74
2022/07/11 11:58:49;;;;;;;5.00;1.63;;;14.60;99.90;;;;;;5034367;28;20032;-75
2022/07/11 12:01:21;;;;;;;4.07;0.88;;;14.50;99.90;;;;;;5034429;28;20028;-72
2022/07/11 12:03:57;;;;;;;0.95;0.40;;;14.30;99.90;;;;;;5052199;28;20025;-72
2022/07/11 12:06:30;;;;;;;1.40;0.50;;;14.10;99.90;;;;;;5041788;28;20111;-61
2022/07/11 12:09:00;;;;;;;2.63;0.40;;;14.20;99.90;;;;;;5045429;28;20045;-59
2022/07/11 12:11:29;;;;;;;4.97;0.90;;;14.50;99.90;;;;;;5044184;28;20455;-60
2022/07/11 12:13:59;;;;;;;1.85;0.30;;;14.80;99.90;;;;;;5046198;28;20031;-61
2022/07/11 12:16:44;;;;;;;1.45;0.25;;;15.00;99.90;;;;;;5032670;28;20043;-61
2022/07/11 12:19:13;;;;;;;1.88;0.20;;;15.20;99.90;;;;;;5032770;28;20040;-59
2022/07/11 12:21:41;;;;;;;1.75;0.35;;;15.40;99.90;;;;;;5032480;28;20036;-59
2022/07/11 12:24:10;;;;;;;0.77;0.20;;;15.60;99.90;;;;;;5038308;28;20580;-59
2022/07/11 12:26:38;;;;;;;0.93;0.20;;;15.70;99.90;;;;;;5022285;28;20024;-60
2022/07/11 12:29:24;;;;;;;0.55;0.30;;;15.90;99.90;;;;;;5034602;28;20064;-59
2022/07/11 12:31:54;;;;;;;0.65;0.30;;;16.20;99.90;;;;;;5050434;28;20147;-60
2022/07/11 12:34:27;;;;;;;1.23;0.38;;;16.50;99.90;;;;;;5049489;28;20423;-59
2022/07/11 12:37:04;;;;;;;1.60;0.52;;;16.80;99.90;;;;;;5048515;28;20591;-59
2022/07/11 12:39:32;;;;;;;1.88;0.68;;;16.50;99.90;;;;;;5042287;28;20045;-59
2022/07/11 12:41:59;;;;;;;1.83;0.57;;;16.40;99.90;;;;;;5041104;28;20030;-58
2022/07/11 12:47:10;;;;;;;0.57;0.30;;;16.20;99.90;;;;;;5050551;28;19978;-58
2022/07/11 12:49:39;;;;;;;0.52;0.30;;;16.60;99.90;;;;;;5050791;28;20044;-59
2022/07/11 12:52:05;;;;;;;0.68;0.30;;;16.90;99.90;;;;;;5051322;28;20040;-58
2022/07/11 12:54:33;;;;;;;0.68;0.10;;;17.20;99.90;;;;;;5051378;28;20025;-60
2022/07/11 12:57:03;;;;;;;2.05;0.17;;;17.30;99.90;;;;;;5047669;28;20029;-61
2022/07/11 12:59:31;;;;;;;0.95;0.20;;;17.50;99.90;;;;;;5051393;28;20514;-60
2022/07/11 13:02:07;;;;;;;0.13;0.13;;;17.80;99.90;;;;;;5046840;28;20393;-58